Time;durP1;ratioP1;P1;durP2;ratioP2;P2;SDS_P1;SDS_P2;PMS_P1;PMS_P2;Temp;Humidity;BMP_temperature;BMP_pressure;BME280_temperature;BME280_humidity;BME280_pressure;Samples;Min_cycle;Max_cycle;Signal;HPM_P1;HPM_P2
2023/09/22 00:00:35;;;;;;;10.88;5.70;;;;;;;18.35;nan;100063.97;5107083;27;20467;-74
2023/09/22 00:03:01;;;;;;;11.95;5.63;;;;;;;18.32;nan;100069.88;5123518;27;20030;-70
2023/09/22 00:05:26;;;;;;;14.43;6.32;;;;;;;18.35;nan;100063.97;5108117;27;20034;-71
2023/09/22 00:07:51;;;;;;;8.80;5.97;;;;;;;18.38;nan;100066.06;5120977;27;20038;-74
2023/09/22 00:10:17;;;;;;;13.95;6.10;;;;;;;18.29;nan;100049.91;5102980;27;20465;-70
2023/09/22 00:12:43;;;;;;;12.93;6.18;;;;;;;18.32;nan;100056.56;5120372;27;20026;-71
2023/09/22 00:15:09;;;;;;;9.63;5.35;;;;;;;18.34;nan;100073.84;5120131;27;20038;-71
2023/09/22 00:17:35;;;;;;;13.75;5.82;;;;;;;18.24;nan;100069.44;5121097;27;20026;-69
2023/09/22 00:20:01;;;;;;;12.73;6.22;;;;;;;18.21;nan;100085.19;5122702;27;20498;-70
2023/09/22 00:22:27;;;;;;;9.95;6.07;;;;;;;18.10;nan;100063.19;5122904;27;20023;-74
2023/09/22 00:24:52;;;;;;;14.20;6.45;;;;;;;18.13;nan;100069.81;5108258;27;20055;-74
2023/09/22 00:27:18;;;;;;;13.68;6.95;;;;;;;18.19;nan;100082.00;5121548;27;20026;-74
2023/09/22 00:29:43;;;;;;;12.27;6.13;;;;;;;18.15;nan;100064.97;5121696;27;20034;-74
2023/09/22 00:32:10;;;;;;;13.00;6.45;;;;;;;18.02;nan;100043.25;5122254;27;20020;-70
2023/09/22 00:34:35;;;;;;;16.88;7.25;;;;;;;18.18;nan;100064.44;5121321;27;20015;-71
2023/09/22 00:37:00;;;;;;;14.25;6.15;;;;;;;18.31;nan;100077.06;5119966;27;20031;-71
2023/09/22 00:39:26;;;;;;;11.65;6.50;;;;;;;18.31;nan;100070.94;5121748;27;20122;-69
2023/09/22 00:41:54;;;;;;;13.60;6.43;;;;;;;18.32;nan;100078.66;5120002;27;20066;-73
2023/09/22 00:44:19;;;;;;;14.63;6.45;;;;;;;18.14;nan;100047.41;5121501;27;20775;-73
2023/09/22 00:46:45;;;;;;;13.68;6.28;;;;;;;18.23;nan;100062.50;5119694;27;20027;-70
2023/09/22 00:49:11;;;;;;;11.88;6.50;;;;;;;18.35;nan;100082.63;5121606;27;20633;-74
2023/09/22 00:51:36;;;;;;;10.57;6.32;;;;;;;18.35;nan;100088.75;5122538;27;20025;-74
2023/09/22 00:54:02;;;;;;;12.43;6.30;;;;;;;18.35;nan;100083.44;5121724;27;20016;-71
2023/09/22 00:56:28;;;;;;;13.63;6.43;;;;;;;18.31;nan;100078.94;5119081;27;20050;-71
2023/09/22 00:58:54;;;;;;;8.68;5.70;;;;;;;18.34;nan;100081.84;5119303;27;20137;-71
2023/09/22 01:01:20;;;;;;;11.05;6.68;;;;;;;18.31;nan;100084.28;5120339;27;20115;-73
2023/09/22 01:03:48;;;;;;;14.63;6.32;;;;;;;18.30;nan;100083.47;5099816;27;20069;-70
2023/09/22 01:06:14;;;;;;;12.73;6.95;;;;;;;18.28;nan;100074.97;5121308;27;20034;-70
2023/09/22 01:08:40;;;;;;;14.55;6.60;;;;;;;18.19;nan;100066.00;5121714;27;20015;-70
2023/09/22 01:11:05;;;;;;;11.02;6.38;;;;;;;18.17;nan;100052.16;5118902;27;20084;-74
2023/09/22 01:13:31;;;;;;;13.35;6.35;;;;;;;18.08;nan;100062.69;5120345;27;20072;-71
2023/09/22 01:15:57;;;;;;;11.07;6.43;;;;;;;17.98;nan;100074.25;5120836;27;20029;-73
2023/09/22 01:18:22;;;;;;;10.00;6.25;;;;;;;17.96;nan;100072.94;5121380;27;20035;-71
2023/09/22 01:20:48;;;;;;;13.57;6.85;;;;;;;17.80;nan;100064.25;5119774;27;20023;-71
2023/09/22 01:23:14;;;;;;;13.50;6.57;;;;;;;17.83;nan;100072.50;5121657;27;20035;-74
2023/09/22 01:25:43;;;;;;;11.27;7.05;;;;;;;17.90;nan;100082.03;5119689;27;20035;-73
2023/09/22 01:28:09;;;;;;;13.38;6.95;;;;;;;17.89;nan;100081.25;5118536;27;20034;-71
2023/09/22 01:30:35;;;;;;;10.90;6.10;;;;;;;17.77;nan;100076.25;5121279;27;20023;-73
2023/09/22 01:33:03;;;;;;;15.25;6.80;;;;;;;17.74;nan;100066.19;5120711;27;20787;-71
2023/09/22 01:35:33;;;;;;;14.63;6.32;;;;;;;17.76;nan;100063.22;5117556;27;20023;-73
2023/09/22 01:38:18;;;;;;;19.77;6.50;;;;;;;17.75;nan;100073.09;5104939;28;20114;-70
2023/09/22 01:40:44;;;;;;;13.65;6.32;;;;;;;17.74;nan;100068.84;5118678;27;20028;-71
2023/09/22 01:43:10;;;;;;;15.70;6.70;;;;;;;17.74;nan;100071.50;5121649;27;20029;-72
2023/09/22 01:45:36;;;;;;;12.05;6.95;;;;;;;17.73;nan;100069.13;5121557;27;20027;-73
2023/09/22 01:48:03;;;;;;;16.38;6.75;;;;;;;17.65;nan;100059.88;5124005;27;20031;-74
2023/09/22 01:50:28;;;;;;;11.48;7.05;;;;;;;17.51;nan;100046.41;5125124;27;20091;-74
2023/09/22 01:52:54;;;;;;;13.50;6.50;;;;;;;17.40;nan;100063.53;5124101;27;20457;-73
2023/09/22 01:55:20;;;;;;;14.35;7.03;;;;;;;17.09;nan;100015.84;5122462;27;20077;-71
2023/09/22 01:57:50;;;;;;;12.45;7.20;;;;;;;17.16;nan;100042.94;5123325;27;20144;-73
2023/09/22 02:00:15;;;;;;;;;;;;;;;17.18;nan;100055.97;5127951;27;20027;-74
2023/09/22 02:02:43;;;;;;;10.88;6.63;;;;;;;17.08;nan;100046.19;5123301;27;19957;-70
2023/09/22 02:05:14;;;;;;;20.17;7.47;;;;;;;17.14;nan;100060.25;5125138;27;20058;-75
2023/09/22 02:07:41;;;;;;;13.85;7.45;;;;;;;17.13;nan;100061.34;5093046;27;20563;-71
2023/09/22 02:10:10;;;;;;;13.30;7.15;;;;;;;17.10;nan;100057.38;5122988;27;20106;-73
2023/09/22 02:12:39;;;;;;;14.23;7.43;;;;;;;17.06;nan;100053.66;5121710;27;20019;-72
2023/09/22 02:15:09;;;;;;;12.63;7.18;;;;;;;17.08;nan;100058.72;5126899;27;20035;-69
2023/09/22 02:17:35;;;;;;;13.95;7.70;;;;;;;17.10;nan;100048.59;5124426;27;20110;-73
2023/09/22 02:20:00;;;;;;;12.23;7.70;;;;;;;17.00;nan;100042.25;5122963;27;20110;-71
2023/09/22 02:22:25;;;;;;;12.93;7.57;;;;;;;17.04;nan;100049.69;5124432;27;20104;-75
2023/09/22 02:24:51;;;;;;;18.25;7.38;;;;;;;17.08;nan;100042.75;5124804;27;20027;-73
2023/09/22 02:27:16;;;;;;;21.13;8.85;;;;;;;17.04;nan;100039.84;5121067;27;20599;-72
2023/09/22 02:29:42;;;;;;;15.05;7.70;;;;;;;17.13;nan;100046.16;5123501;27;20099;-66
2023/09/22 02:32:07;;;;;;;14.27;7.88;;;;;;;17.15;nan;100049.34;5121934;27;20019;-65
2023/09/22 02:34:33;;;;;;;14.82;7.47;;;;;;;17.19;nan;100047.72;5124343;27;20031;-66
2023/09/22 02:36:58;;;;;;;13.77;8.00;;;;;;;17.14;nan;100045.09;5122715;27;20062;-66
2023/09/22 02:39:24;;;;;;;18.02;8.00;;;;;;;17.17;nan;100049.06;5123474;27;20043;-64
2023/09/22 02:41:49;;;;;;;16.10;7.90;;;;;;;17.09;nan;100047.78;5121104;27;20043;-66
2023/09/22 02:44:15;;;;;;;17.10;7.50;;;;;;;17.05;nan;100049.41;5120907;27;20820;-66
2023/09/22 02:46:41;;;;;;;16.67;8.60;;;;;;;17.05;nan;100054.75;5124234;27;20468;-66
2023/09/22 02:49:07;;;;;;;18.83;8.05;;;;;;;17.03;nan;100048.91;5105179;27;20068;-66
2023/09/22 02:51:33;;;;;;;20.83;8.35;;;;;;;17.07;nan;100063.25;5123046;27;20022;-70
2023/09/22 02:53:59;;;;;;;15.20;8.10;;;;;;;17.00;nan;100042.25;5123118;27;20035;-69
2023/09/22 02:56:24;;;;;;;18.35;7.70;;;;;;;16.98;nan;100049.72;5123190;27;20027;-69
2023/09/22 02:58:49;;;;;;;12.70;8.02;;;;;;;17.09;nan;100061.06;5102663;27;20031;-72
2023/09/22 03:01:15;;;;;;;22.45;7.90;;;;;;;17.04;nan;100061.13;5123792;27;20028;-69
2023/09/22 03:03:43;;;;;;;23.30;8.40;;;;;;;17.04;nan;100062.97;5123225;27;20102;-74
2023/09/22 03:06:12;;;;;;;17.50;7.70;;;;;;;16.86;nan;100030.66;5125542;27;20023;-69
2023/09/22 03:08:38;;;;;;;14.35;7.68;;;;;;;17.10;nan;100067.22;5125768;27;20068;-70
2023/09/22 03:11:05;;;;;;;18.98;8.18;;;;;;;17.13;nan;100067.44;5108036;27;20369;-72
2023/09/22 03:13:31;;;;;;;16.58;7.53;;;;;;;17.13;nan;100066.66;5124376;27;20032;-69
2023/09/22 03:15:57;;;;;;;26.35;8.75;;;;;;;17.11;nan;100064.25;5103767;27;20039;-71
2023/09/22 03:18:23;;;;;;;14.70;7.85;;;;;;;17.10;nan;100065.34;5121739;27;20502;-72
2023/09/22 03:20:49;;;;;;;17.15;7.57;;;;;;;17.04;nan;100058.44;5108435;27;20027;-70
2023/09/22 03:23:15;;;;;;;19.15;8.45;;;;;;;16.99;nan;100050.50;5123692;27;20031;-73
2023/09/22 03:25:40;;;;;;;17.20;8.57;;;;;;;17.00;nan;100060.09;5122228;27;20398;-73
2023/09/22 03:28:06;;;;;;;15.55;8.38;;;;;;;16.95;nan;100038.81;5123823;27;20027;-73
2023/09/22 03:30:31;;;;;;;15.20;8.35;;;;;;;16.90;nan;100041.53;5122446;27;20542;-73
2023/09/22 03:32:58;;;;;;;15.68;8.38;;;;;;;17.00;nan;100063.53;5121324;27;20028;-71
2023/09/22 03:35:25;;;;;;;15.68;8.35;;;;;;;17.01;nan;100040.41;5122218;27;20052;-73
2023/09/22 03:37:52;;;;;;;14.23;7.90;;;;;;;17.00;nan;100047.59;5119693;27;20031;-69
2023/09/22 03:40:30;;;;;;;15.43;8.38;;;;;;;17.06;nan;100069.63;5106583;27;20039;-69
2023/09/22 03:42:56;;;;;;;16.47;8.73;;;;;;;17.03;nan;100062.19;5120497;27;20045;-69
2023/09/22 03:45:21;;;;;;;12.23;7.93;;;;;;;17.01;nan;100067.78;5123435;27;20469;-74
2023/09/22 03:47:46;;;;;;;13.13;8.00;;;;;;;16.96;nan;100054.53;5103983;27;20022;-69
2023/09/22 03:50:12;;;;;;;13.50;8.07;;;;;;;16.97;nan;100066.72;5105558;27;20028;-69
2023/09/22 03:52:40;;;;;;;12.80;7.63;;;;;;;16.88;nan;100054.28;5122141;27;20024;-71
2023/09/22 03:55:06;;;;;;;16.60;8.27;;;;;;;16.96;nan;100064.38;5120879;27;20477;-74
2023/09/22 03:57:31;;;;;;;22.13;8.60;;;;;;;16.98;nan;100065.69;5121124;27;20541;-73
2023/09/22 03:59:56;;;;;;;19.50;8.90;;;;;;;17.03;nan;100064.84;5121148;27;20022;-73
2023/09/22 04:02:22;;;;;;;20.08;8.25;;;;;;;16.99;nan;100055.84;5124200;27;20072;-74
2023/09/22 04:04:47;;;;;;;21.45;8.43;;;;;;;17.04;nan;100069.09;5121973;27;20455;-69
2023/09/22 04:07:14;;;;;;;13.23;8.18;;;;;;;16.93;nan;100056.94;5123553;27;20023;-70
2023/09/22 04:09:40;;;;;;;26.58;8.88;;;;;;;16.93;nan;100056.94;5107556;27;20469;-76
2023/09/22 04:12:06;;;;;;;22.05;9.02;;;;;;;16.98;nan;100067.56;5119270;27;20027;-70
2023/09/22 04:14:33;;;;;;;25.80;9.35;;;;;;;16.98;nan;100064.91;5121535;27;20041;-70
2023/09/22 04:17:00;;;;;;;20.05;8.65;;;;;;;16.94;nan;100066.50;5123682;27;20076;-69
2023/09/22 04:19:25;;;;;;;20.15;9.07;;;;;;;16.93;nan;100071.03;5124963;27;20547;-74
2023/09/22 04:21:52;;;;;;;19.77;9.00;;;;;;;16.92;nan;100076.63;5104096;27;20031;-69
2023/09/22 04:24:20;;;;;;;20.27;8.65;;;;;;;16.95;nan;100084.03;5118631;27;20023;-73
2023/09/22 04:26:49;;;;;;;18.92;8.38;;;;;;;16.92;nan;100079.28;5122742;27;20063;-73
2023/09/22 04:29:14;;;;;;;15.95;9.23;;;;;;;16.92;nan;100074.75;5121603;27;20034;-70
2023/09/22 04:31:39;;;;;;;21.40;9.18;;;;;;;16.92;nan;100071.31;5121362;27;20018;-69
2023/09/22 04:34:05;;;;;;;14.90;8.55;;;;;;;16.91;nan;100070.50;5120038;27;20027;-73
2023/09/22 04:36:31;;;;;;;20.00;9.10;;;;;;;16.86;nan;100067.88;5121329;27;20031;-74
2023/09/22 04:38:57;;;;;;;21.42;8.75;;;;;;;16.89;nan;100070.00;5121266;27;20055;-70
2023/09/22 04:41:24;;;;;;;15.88;9.10;;;;;;;16.87;nan;100071.34;5119968;27;20019;-74
2023/09/22 04:43:53;;;;;;;19.27;8.70;;;;;;;16.88;nan;100075.56;5120247;27;20699;-70
2023/09/22 04:46:22;;;;;;;19.45;8.88;;;;;;;16.83;nan;100057.78;5104749;27;20027;-72
2023/09/22 04:48:47;;;;;;;19.45;8.85;;;;;;;16.83;nan;100063.09;5120542;27;20066;-69
2023/09/22 04:51:14;;;;;;;22.65;9.60;;;;;;;16.75;nan;100058.34;5119457;27;20047;-72
2023/09/22 04:53:41;;;;;;;18.00;9.10;;;;;;;16.84;nan;100075.34;5118149;27;20069;-69
2023/09/22 04:56:07;;;;;;;26.10;9.93;;;;;;;16.83;nan;100063.09;5118660;27;20035;-69
2023/09/22 04:58:33;;;;;;;20.95;8.98;;;;;;;16.82;nan;100060.72;5106288;27;20023;-71
2023/09/22 05:01:01;;;;;;;17.48;9.70;;;;;;;16.83;nan;100068.41;5119072;27;20032;-69
2023/09/22 05:03:28;;;;;;;21.30;10.25;;;;;;;16.81;nan;100070.56;5122403;27;20587;-69
2023/09/22 05:05:54;;;;;;;21.92;9.43;;;;;;;16.91;nan;100085.69;5120670;27;20030;-69
2023/09/22 05:08:20;;;;;;;23.88;9.23;;;;;;;16.94;nan;100088.56;5119865;27;20389;-69
2023/09/22 05:10:49;;;;;;;17.42;9.15;;;;;;;16.97;nan;100089.88;5121044;27;20096;-69
2023/09/22 05:13:18;;;;;;;21.75;9.77;;;;;;;16.94;nan;100093.09;5121023;27;20050;-69
2023/09/22 05:15:44;;;;;;;20.42;9.48;;;;;;;16.92;nan;100082.72;5119371;27;20027;-69
2023/09/22 05:18:13;;;;;;;19.75;9.35;;;;;;;16.93;nan;100073.69;5120978;27;20087;-69
2023/09/22 05:20:42;;;;;;;24.30;9.07;;;;;;;16.96;nan;100080.31;5124757;27;20031;-69
2023/09/22 05:23:08;;;;;;;21.05;9.95;;;;;;;16.92;nan;100077.41;5126713;27;20114;-68
2023/09/22 05:25:43;;;;;;;33.70;10.32;;;;;;;16.80;nan;100058.34;5104676;27;20147;-68
2023/09/22 05:28:09;;;;;;;27.88;10.25;;;;;;;16.97;nan;100087.22;5121321;27;20113;-68
2023/09/22 05:30:38;;;;;;;27.20;10.00;;;;;;;17.03;nan;100088.78;5122689;27;20106;-70
2023/09/22 05:33:07;;;;;;;22.45;9.60;;;;;;;16.98;nan;100078.19;5126562;27;20054;-69
2023/09/22 05:35:36;;;;;;;30.08;10.80;;;;;;;16.99;nan;100082.44;5126672;27;20119;-69
2023/09/22 05:38:05;;;;;;;26.48;10.93;;;;;;;16.99;nan;100082.44;5121219;27;20023;-70
2023/09/22 05:40:34;;;;;;;26.33;9.60;;;;;;;17.00;nan;100090.16;5126782;27;20037;-70
2023/09/22 05:43:07;;;;;;;24.80;10.38;;;;;;;17.03;nan;100086.13;5126567;27;20084;-70
2023/09/22 05:45:32;;;;;;;30.23;10.18;;;;;;;17.09;nan;100100.19;5123478;27;20080;-70
2023/09/22 05:47:57;;;;;;;23.42;10.20;;;;;;;17.13;nan;100101.25;5121184;27;20039;-70
2023/09/22 05:50:23;;;;;;;26.13;10.52;;;;;;;17.11;nan;100101.50;5123063;27;20548;-72
2023/09/22 05:52:51;;;;;;;30.40;11.55;;;;;;;17.22;nan;100113.69;5123841;27;20076;-68
2023/09/22 05:55:20;;;;;;;26.50;12.00;;;;;;;17.32;nan;100109.38;5125363;27;20911;-69
2023/09/22 05:57:46;;;;;;;29.88;9.80;;;;;;;17.36;nan;100107.75;5123223;27;20279;-70
2023/09/22 06:00:26;;;;;;;19.80;10.50;;;;;;;;;;5122259;27;20552;-70
2023/09/22 06:02:51;;;;;;;;;;;;;;;;;;5124545;27;20034;-69
2023/09/22 06:05:16;;;;;;;27.80;10.80;;;;;;;;;;5124549;27;20180;-68
2023/09/22 06:07:42;;;;;;;22.55;9.75;;;;;;;17.90;nan;100060.72;5125288;27;20119;-69
2023/09/22 06:10:09;;;;;;;22.30;10.55;;;;;;;;;;5110830;27;20078;-69
2023/09/22 06:12:35;;;;;;;23.27;10.40;;;;;;;;;;5123471;27;20023;-69
2023/09/22 06:15:00;;;;;;;27.43;11.40;;;;;;;18.11;nan;100038.13;5107383;27;20110;-70
2023/09/22 06:17:25;;;;;;;28.10;10.38;;;;;;;;;;5123916;27;20967;-68
2023/09/22 06:19:51;;;;;;;21.98;10.63;;;;;;;18.26;nan;100103.78;5123573;27;20486;-69
2023/09/22 06:22:17;;;;;;;21.52;10.20;;;;;;;18.30;nan;100102.16;5122118;27;20027;-69
2023/09/22 06:24:42;;;;;;;29.95;11.57;;;;;;;18.40;nan;100107.34;5104457;27;20096;-69
2023/09/22 06:27:08;;;;;;;25.42;10.68;;;;;;;18.45;nan;100112.63;5105395;27;20030;-70
2023/09/22 06:29:33;;;;;;;29.67;11.32;;;;;;;18.54;nan;100114.69;5123688;27;20027;-68
2023/09/22 06:31:58;;;;;;;26.48;10.77;;;;;;;18.67;nan;100117.44;5109094;27;20648;-67
2023/09/22 06:34:24;;;;;;;22.45;10.05;;;;;;;18.70;nan;100108.09;5124536;27;20027;-69
2023/09/22 06:36:49;;;;;;;21.25;9.82;;;;;;;18.87;nan;100113.75;5124594;27;20076;-69
2023/09/22 06:39:14;;;;;;;25.85;10.38;;;;;;;18.95;nan;100120.31;5124092;27;20489;-69
2023/09/22 06:41:40;;;;;;;18.70;9.20;;;;;;;19.18;nan;100128.53;5122446;27;20035;-70
2023/09/22 06:44:06;;;;;;;18.63;9.20;;;;;;;19.25;nan;100116.44;5122103;27;20034;-75
2023/09/22 06:46:35;;;;;;;16.02;8.40;;;;;;;19.28;nan;100118.53;5123958;27;20031;-74
2023/09/22 06:49:01;;;;;;;;;;;;;;;19.47;nan;100131.84;5127393;27;20485;-70
2023/09/22 06:51:27;;;;;;;16.30;8.70;;;;;;;19.96;nan;100194.69;5122218;27;19942;-69
2023/09/22 06:53:53;;;;;;;16.13;8.75;;;;;;;19.71;nan;100131.78;5123946;27;20058;-70
2023/09/22 06:56:18;;;;;;;19.65;8.82;;;;;;;19.77;nan;100133.25;5125963;27;20520;-68
2023/09/22 06:58:43;;;;;;;17.73;7.70;;;;;;;19.69;nan;100109.13;5123168;27;20015;-70
2023/09/22 07:01:13;;;;;;;13.85;7.32;;;;;;;19.92;nan;100124.22;5108848;27;20482;-69
2023/09/22 07:03:43;;;;;;;15.65;7.32;;;;;;;20.07;nan;100138.41;5120793;27;20027;-71
2023/09/22 07:06:10;;;;;;;11.20;6.65;;;;;;;20.17;nan;100132.88;5121079;27;20030;-71
2023/09/22 07:08:39;;;;;;;11.68;6.03;;;;;;;20.33;nan;100146.75;5123037;27;20031;-71
2023/09/22 07:11:07;;;;;;;13.00;6.70;;;;;;;20.47;nan;100138.72;5121443;27;20072;-70
2023/09/22 07:13:32;;;;;;;14.27;7.20;;;;;;;20.60;nan;100141.44;5126341;27;20023;-71
2023/09/22 07:15:58;;;;;;;13.98;5.80;;;;;;;20.77;nan;100146.16;5124358;27;20031;-68
2023/09/22 07:18:26;;;;;;;14.52;6.13;;;;;;;20.85;nan;100127.81;5103770;27;20026;-69
2023/09/22 07:20:53;;;;;;;12.40;5.35;;;;;;;21.10;nan;100153.25;5123402;27;20033;-69
2023/09/22 07:23:20;;;;;;;11.93;5.43;;;;;;;21.26;nan;100159.84;5123375;27;20072;-70
2023/09/22 07:25:56;;;;;;;14.15;5.85;;;;;;;21.33;nan;100160.22;5122886;27;20016;-69
2023/09/22 07:28:21;;;;;;;12.88;6.25;;;;;;;21.51;nan;100155.06;5122860;27;20527;-69
2023/09/22 07:30:46;;;;;;;12.02;4.97;;;;;;;21.63;nan;100156.06;5109957;27;20027;-69
2023/09/22 07:33:12;;;;;;;12.48;4.85;;;;;;;21.76;nan;100149.06;5121541;27;20114;-69
2023/09/22 07:35:37;;;;;;;12.48;4.50;;;;;;;21.96;nan;100152.34;5122829;27;20469;-70
2023/09/22 07:38:03;;;;;;;12.98;5.65;;;;;;;22.04;nan;100144.34;5123556;27;20083;-70
2023/09/22 07:40:28;;;;;;;12.18;4.65;;;;;;;22.13;nan;100127.50;5122363;27;20033;-69
2023/09/22 07:42:54;;;;;;;11.38;5.10;;;;;;;22.32;nan;100132.69;5102881;27;20027;-66
2023/09/22 07:45:19;;;;;;;14.35;4.65;;;;;;;22.48;nan;100142.69;5118778;27;20110;-71
2023/09/22 07:47:44;;;;;;;15.80;5.50;;;;;;;22.63;nan;100127.25;5101897;27;20076;-67
2023/09/22 07:50:11;;;;;;;13.63;4.53;;;;;;;22.81;nan;100144.16;5105625;27;20049;-67
2023/09/22 07:52:36;;;;;;;6.47;4.13;;;;;;;22.91;nan;100125.06;5122577;27;20023;-67
2023/09/22 07:55:02;;;;;;;9.25;4.28;;;;;;;23.14;nan;100131.91;5101502;27;20027;-67
2023/09/22 07:57:30;;;;;;;12.20;4.60;;;;;;;23.26;nan;100130.50;5102874;27;20473;-68
2023/09/22 07:59:56;;;;;;;12.77;4.13;;;;;;;23.35;nan;100126.69;5123557;27;20562;-66
2023/09/22 08:02:22;;;;;;;13.82;4.63;;;;;;;23.50;nan;100136.16;5120302;27;20060;-67
2023/09/22 08:04:47;;;;;;;13.05;4.38;;;;;;;23.65;nan;100137.56;5102977;27;20047;-67
2023/09/22 08:07:13;;;;;;;12.05;4.57;;;;;;;23.75;nan;100131.91;5121998;27;20111;-67
2023/09/22 08:09:39;;;;;;;15.88;3.90;;;;;;;23.83;nan;100122.22;5122197;27;20082;-71
2023/09/22 08:12:05;;;;;;;7.25;3.83;;;;;;;24.02;nan;100145.28;5121760;27;20019;-67
2023/09/22 08:14:30;;;;;;;13.65;3.88;;;;;;;24.05;nan;100125.81;5122568;27;20042;-66
2023/09/22 08:16:55;;;;;;;13.00;4.90;;;;;;;24.19;nan;100135.25;5120995;27;20030;-65
2023/09/22 08:19:21;;;;;;;11.07;3.72;;;;;;;24.28;nan;100129.81;5102390;27;20090;-68
2023/09/22 08:21:48;;;;;;;13.40;3.92;;;;;;;24.38;nan;100128.69;5118470;27;20584;-66
2023/09/22 08:24:15;;;;;;;8.85;3.50;;;;;;;24.56;nan;100137.47;5120390;27;20030;-67
2023/09/22 08:26:41;;;;;;;13.77;3.53;;;;;;;24.60;nan;100120.34;5106953;27;20104;-67
2023/09/22 08:29:09;;;;;;;10.77;3.88;;;;;;;24.75;nan;100128.97;5102439;27;20031;-66
2023/09/22 08:31:34;;;;;;;11.25;3.63;;;;;;;24.87;nan;100141.72;5118426;27;20011;-65
2023/09/22 08:33:59;;;;;;;11.63;4.15;;;;;;;24.92;nan;100134.22;5118360;27;20084;-68
2023/09/22 08:36:25;;;;;;;11.35;3.63;;;;;;;24.97;nan;100134.06;5118482;27;20716;-67
2023/09/22 08:38:51;;;;;;;8.82;3.60;;;;;;;25.07;nan;100132.88;5099933;27;20043;-68
2023/09/22 08:41:17;;;;;;;9.82;3.92;;;;;;;25.12;nan;100121.91;5121425;27;20015;-71
2023/09/22 08:43:45;;;;;;;10.02;3.97;;;;;;;25.23;nan;100128.47;5119687;27;20051;-68
2023/09/22 08:46:11;;;;;;;9.48;3.63;;;;;;;25.31;nan;100126.03;5122185;27;20473;-69
2023/09/22 08:48:36;;;;;;;8.15;3.60;;;;;;;25.34;nan;100120.00;5120594;27;20047;-70
2023/09/22 08:51:03;;;;;;;10.25;4.10;;;;;;;25.40;nan;100107.88;5101575;27;20034;-69
2023/09/22 08:53:29;;;;;;;13.13;4.57;;;;;;;25.50;nan;100120.97;5120970;27;20118;-70
2023/09/22 08:55:55;;;;;;;8.02;4.22;;;;;;;25.61;nan;100129.41;5120909;27;20034;-69
2023/09/22 08:58:21;;;;;;;10.18;3.65;;;;;;;25.65;nan;100103.34;5104126;27;20408;-66
2023/09/22 09:00:48;;;;;;;9.80;4.47;;;;;;;25.73;nan;100112.47;5121580;27;20023;-69
2023/09/22 09:03:14;;;;;;;10.00;3.97;;;;;;;25.76;nan;100109.88;5120734;27;20023;-70
2023/09/22 09:05:40;;;;;;;9.98;3.97;;;;;;;25.80;nan;100104.63;5120778;27;20015;-69
2023/09/22 09:08:22;;;;;;;9.52;4.38;;;;;;;25.92;nan;100107.34;5107802;27;20487;-69
2023/09/22 09:10:48;;;;;;;12.02;4.07;;;;;;;26.02;nan;100106.91;5119186;27;20032;-70
2023/09/22 09:13:14;;;;;;;10.60;4.53;;;;;;;26.13;nan;100109.97;5119646;27;20084;-70
2023/09/22 09:15:47;;;;;;;10.50;4.13;;;;;;;26.21;nan;100097.50;5121909;27;20027;-70
2023/09/22 09:18:18;;;;;;;11.48;3.75;;;;;;;26.26;nan;100102.66;5121996;27;20023;-69
2023/09/22 09:20:45;;;;;;;10.60;4.13;;;;;;;26.26;nan;100097.25;5119885;27;20023;-69
2023/09/22 09:23:15;;;;;;;13.23;4.38;;;;;;;26.37;nan;100105.72;5121330;27;20034;-70
2023/09/22 09:25:42;;;;;;;12.38;4.53;;;;;;;26.34;nan;100095.56;5101583;28;20110;-71
2023/09/22 09:28:08;;;;;;;10.98;4.25;;;;;;;26.38;nan;100096.47;5117322;27;20027;-73
2023/09/22 09:30:33;;;;;;;12.95;5.03;;;;;;;26.42;nan;100092.75;5120819;27;20049;-72
2023/09/22 09:33:09;;;;;;;13.90;5.55;;;;;;;26.50;nan;100099.94;5122174;27;20120;-71
2023/09/22 09:35:39;;;;;;;11.48;4.45;;;;;;;26.49;nan;100089.50;5116446;28;20102;-68
2023/09/22 09:38:08;;;;;;;11.15;4.72;;;;;;;26.48;nan;100086.00;5120924;27;20023;-69
2023/09/22 09:40:37;;;;;;;;;;;;;;;26.60;nan;100097.94;5120906;27;20072;-68
2023/09/22 09:43:10;;;;;;;13.13;5.10;;;;;;;26.61;nan;100092.19;5117504;27;20023;-70
2023/09/22 09:45:42;;;;;;;13.07;4.75;;;;;;;26.65;nan;100087.69;5120791;27;20031;-67
2023/09/22 09:48:10;;;;;;;11.70;5.32;;;;;;;26.72;nan;100084.41;5120629;27;20019;-68
2023/09/22 09:50:37;;;;;;;14.00;4.93;;;;;;;26.76;nan;100069.09;5120433;27;20056;-68
2023/09/22 09:53:26;;;;;;;10.95;4.65;;;;;;;26.66;nan;100046.03;5121950;27;20020;-68
2023/09/22 09:55:56;;;;;;;12.38;5.30;;;;;;;26.86;nan;100071.31;5119699;27;20027;-68
2023/09/22 09:58:24;;;;;;;11.98;4.82;;;;;;;26.97;nan;100078.94;5120499;27;20155;-69
2023/09/22 10:00:50;;;;;;;10.05;5.00;;;;;;;27.01;nan;100074.41;5118867;27;20496;-68
2023/09/22 10:03:19;;;;;;;11.32;5.05;;;;;;;27.04;nan;100068.34;5120858;27;20106;-69
2023/09/22 10:05:46;;;;;;;7.72;4.80;;;;;;;27.15;nan;100074.78;5119282;27;21128;-69
2023/09/22 10:08:11;;;;;;;11.38;5.05;;;;;;;27.21;nan;100061.88;5122836;27;20027;-68
2023/09/22 10:10:38;;;;;;;12.32;5.30;;;;;;;27.25;nan;100071.66;5123621;27;20038;-68
2023/09/22 10:13:04;;;;;;;11.27;4.45;;;;;;;27.29;nan;100071.72;5122875;27;20039;-68
2023/09/22 10:15:53;;;;;;;14.57;4.75;;;;;;;27.28;nan;100059.34;5126408;27;20030;-69
2023/09/22 10:18:20;;;;;;;15.80;4.50;;;;;;;27.34;nan;100060.66;5124465;27;20035;-69
2023/09/22 10:20:47;;;;;;;9.20;3.72;;;;;;;27.43;nan;100057.81;5124797;27;20024;-70
2023/09/22 10:23:24;;;;;;;11.15;3.67;;;;;;;27.49;nan;100059.13;5122532;27;20028;-70
2023/09/22 10:26:04;;;;;;;12.15;3.80;;;;;;;27.56;nan;100056.63;5122684;27;20062;-70
2023/09/22 10:28:29;;;;;;;11.57;4.07;;;;;;;27.58;nan;100049.72;5123809;27;20027;-70
2023/09/22 10:30:58;;;;;;;9.75;4.15;;;;;;;27.69;nan;100049.97;5123220;27;20533;-68
2023/09/22 10:33:23;;;;;;;8.50;3.78;;;;;;;27.77;nan;100048.22;5124637;27;20106;-70
2023/09/22 10:35:49;;;;;;;13.05;3.97;;;;;;;27.81;nan;100051.03;5123529;27;20126;-70
2023/09/22 10:38:15;;;;;;;14.02;4.05;;;;;;;27.81;nan;100042.91;5123516;27;20047;-70
2023/09/22 10:40:59;;;;;;;15.15;4.30;;;;;;;27.87;nan;100041.53;5105859;27;20015;-71
2023/09/22 10:43:26;;;;;;;17.15;4.13;;;;;;;27.88;nan;100046.59;5122710;27;20585;-70
2023/09/22 10:45:52;;;;;;;13.93;4.00;;;;;;;27.90;nan;100033.50;5123817;27;20066;-67
2023/09/22 10:48:18;;;;;;;11.95;4.30;;;;;;;27.96;nan;100037.50;5125561;27;20038;-70
2023/09/22 10:50:49;;;;;;;15.63;4.35;;;;;;;27.97;nan;100032.91;5126950;27;20465;-69
2023/09/22 10:53:15;;;;;;;15.40;3.90;;;;;;;28.03;nan;100025.28;5124157;27;20065;-69
2023/09/22 10:55:44;;;;;;;13.90;4.38;;;;;;;28.10;nan;100031.63;5123030;27;20043;-69
2023/09/22 10:58:12;;;;;;;15.25;4.40;;;;;;;28.19;nan;100026.03;5123731;27;20031;-69
2023/09/22 11:00:44;;;;;;;11.63;4.00;;;;;;;28.22;nan;100019.91;5124151;27;20441;-69
2023/09/22 11:03:14;;;;;;;14.10;4.18;;;;;;;28.33;nan;100022.88;5121759;27;20424;-70
2023/09/22 11:05:41;;;;;;;18.27;4.53;;;;;;;28.31;nan;100014.31;5123321;27;20023;-66
2023/09/22 11:08:14;;;;;;;11.38;4.15;;;;;;;28.40;nan;100015.66;5107837;27;20027;-67
2023/09/22 11:10:42;;;;;;;19.30;4.50;;;;;;;28.44;nan;100004.91;5123707;27;20031;-67
2023/09/22 11:13:07;;;;;;;13.82;4.45;;;;;;;28.55;nan;100014.06;5124130;27;20446;-67
2023/09/22 11:15:35;;;;;;;19.42;4.80;;;;;;;28.61;nan;100009.94;5124932;27;20019;-65
2023/09/22 11:18:01;;;;;;;19.90;5.20;;;;;;;28.70;nan;100011.66;5107707;27;20022;-65
2023/09/22 11:20:27;;;;;;;17.80;4.75;;;;;;;28.73;nan;100000.09;5123706;27;20030;-66
2023/09/22 11:22:53;;;;;;;16.08;4.45;;;;;;;28.65;nan;100001.09;5122639;27;20396;-68
2023/09/22 11:25:21;;;;;;;14.50;4.13;;;;;;;28.70;nan;99995.38;5121472;27;20031;-65
2023/09/22 11:27:49;;;;;;;14.10;4.28;;;;;;;28.77;nan;100009.06;5124108;27;20019;-65
2023/09/22 11:30:17;;;;;;;18.27;4.88;;;;;;;28.77;nan;99992.81;5123422;27;20062;-66
2023/09/22 11:32:47;;;;;;;24.67;4.22;;;;;;;28.83;nan;99999.53;5120835;27;20023;-65
2023/09/22 11:35:39;;;;;;;11.57;4.22;;;;;;;28.92;nan;100007.41;5123644;27;20035;-68